Terminal Aerodrome Forecast
Issued by NWS Paducah, KY

Home | Current Version | Previous Version | Text Only | Print | Product List | Glossary On
Versions: 1 2 3 4 5 6 7 8 9 10 11 12 13 14 15 16 17 18 19 20 21 22 23 24 25 26 27 28 29 30 31 32
461
FTUS43 KPAH 181123
TAFPAH
TAF
KPAH 181123Z 1812/1912 18011G22KT P6SM OVC024
     FM181400 20014G24KT P6SM VCSH OVC018
     FM181900 23018G30KT 5SM -SHRA VCTS SCT018CB BKN025
     FM182100 32022G36KT P6SM BKN030
     FM190200 32017G27KT P6SM SCT060
     FM190600 32012KT P6SM SKC=

USA.gov is the U.S. government's official web portal to all federal, state and local government web resources and services.